Time;durP1;ratioP1;P1;durP2;ratioP2;P2;SDS_P1;SDS_P2;PMS_P1;PMS_P2;Temp;Humidity;BMP_temperature;BMP_pressure;BME280_temperature;BME280_humidity;BME280_pressure;Samples;Min_cycle;Max_cycle;Signal;HPM_P1;HPM_P2
2022/04/05 00:01:34;;;;;;;1.20;0.68;;;;;;;;;;5093963;28;20475;-79
2022/04/05 00:03:59;;;;;;;4.32;0.90;;;;;;;;;;5093888;28;20541;-79
2022/04/05 00:06:25;;;;;;;1.85;0.80;;;;;;;;;;5093840;28;20032;-80
2022/04/05 00:08:50;;;;;;;1.77;0.85;;;;;;;;;;5093788;28;20027;-80
2022/04/05 00:11:16;;;;;;;0.93;0.80;;;;;;;;;;5093586;28;20364;-79
2022/04/05 00:13:41;;;;;;;3.00;1.00;;;;;;;;;;5093769;28;20035;-79
2022/04/05 00:16:06;;;;;;;0.65;0.65;;;;;;;;;;5075328;28;20060;-80
2022/04/05 00:18:32;;;;;;;0.95;0.80;;;;;;;;;;5093526;28;20024;-79
2022/04/05 00:20:57;;;;;;;1.92;0.88;;;;;;;;;;5075127;28;20039;-79
2022/04/05 00:23:23;;;;;;;0.98;0.68;;;;;;;;;;5075677;28;20028;-79
2022/04/05 00:25:49;;;;;;;1.42;0.80;;;;;;;;;;5058365;28;20051;-79
2022/04/05 00:28:14;;;;;;;0.93;0.70;;;;;;;;;;5093751;28;20028;-79
2022/04/05 00:30:40;;;;;;;0.40;0.40;;;;;;;;;;5075422;28;20028;-80
2022/04/05 00:33:05;;;;;;;1.20;0.63;;;;;;;;;;5075202;28;20040;-79
2022/04/05 00:35:30;;;;;;;1.10;0.85;;;;;;;;;;5075443;28;20028;-80
2022/04/05 00:37:56;;;;;;;2.97;0.80;;;;;;;;;;5058185;28;20046;-79
2022/04/05 00:40:21;;;;;;;0.80;0.60;;;;;;;;;;5075062;28;20028;-79
2022/04/05 00:42:47;;;;;;;0.93;0.60;;;;;;;;;;5093259;28;20123;-80
2022/04/05 00:45:16;;;;;;;1.65;0.73;;;;;;;;;;5092934;28;20081;-80
2022/04/05 00:47:44;;;;;;;0.50;0.50;;;;;;;;;;5093253;28;20024;-80
2022/04/05 00:50:10;;;;;;;1.77;0.73;;;;;;;;;;5075082;28;20165;-79
2022/04/05 00:52:36;;;;;;;1.25;0.70;;;;;;;;;;5092805;28;20032;-79
2022/04/05 00:55:02;;;;;;;1.85;0.63;;;;;;;;;;5092756;28;20040;-79
2022/04/05 00:57:28;;;;;;;1.98;0.75;;;;;;;;;;5074153;28;20388;-79
2022/04/05 00:59:56;;;;;;;1.48;0.60;;;;;;;;;;5074409;28;20027;-80
2022/04/05 01:02:25;;;;;;;1.63;0.70;;;;;;;;;;5057427;28;20059;-79
2022/04/05 01:04:51;;;;;;;1.13;0.60;;;;;;;;;;5074986;28;20063;-79
2022/04/05 01:07:22;;;;;;;1.88;0.80;;;;;;;;;;5074943;28;20176;-79
2022/04/05 01:09:53;;;;;;;1.30;0.70;;;;;;;;;;5093028;28;20028;-79
2022/04/05 01:12:19;;;;;;;1.92;0.90;;;;;;;;;;5092585;28;20024;-79
2022/04/05 01:14:45;;;;;;;0.73;0.52;;;;;;;;;;5092529;28;20043;-79
2022/04/05 01:17:10;;;;;;;1.27;0.70;;;;;;;;;;5074118;28;20051;-79
2022/04/05 01:19:36;;;;;;;0.88;0.77;;;;;;;;;;5092421;28;20055;-79
2022/04/05 01:22:02;;;;;;;0.50;0.50;;;;;;;;;;5092424;28;20128;-80
2022/04/05 01:24:28;;;;;;;0.47;0.40;;;;;;;;;;5092657;28;20024;-80
2022/04/05 01:26:57;;;;;;;0.98;0.70;;;;;;;;;;5041032;28;20031;-79
2022/04/05 01:29:24;;;;;;;0.55;0.43;;;;;;;;;;5092798;28;20028;-79
2022/04/05 01:31:57;;;;;;;0.63;0.50;;;;;;;;;;5057899;28;20107;-79
2022/04/05 01:34:25;;;;;;;0.50;0.50;;;;;;;;;;5074611;28;20060;-81
2022/04/05 01:36:53;;;;;;;1.25;0.73;;;;;;;;;;5074297;28;20131;-80
2022/04/05 01:39:20;;;;;;;0.77;0.50;;;;;;;;;;5074121;28;20085;-80
2022/04/05 01:41:50;;;;;;;0.40;0.30;;;;;;;;;;5092735;28;20390;-81
2022/04/05 01:44:16;;;;;;;0.57;0.40;;;;;;;;;;5092284;28;20102;-81
2022/04/05 01:46:41;;;;;;;0.98;0.70;;;;;;;;;;5074511;28;20019;-81
2022/04/05 01:49:08;;;;;;;1.38;0.70;;;;;;;;;;5092622;28;20024;-81
2022/04/05 01:51:35;;;;;;;6.00;0.80;;;;;;;;;;5074852;28;20054;-81
2022/04/05 01:54:05;;;;;;;1.33;0.75;;;;;;;;;;5092452;28;20020;-81
2022/04/05 01:56:33;;;;;;;1.00;0.68;;;;;;;;;;5073953;28;20498;-81
2022/04/05 01:59:00;;;;;;;0.55;0.50;;;;;;;;;;5074552;28;20032;-81
2022/04/05 02:01:25;;;;;;;1.00;0.63;;;;;;;;;;5092611;28;20342;-81
2022/04/05 02:03:51;;;;;;;0.70;0.43;;;;;;;;;;5074377;28;20099;-81
2022/04/05 02:06:16;;;;;;;1.33;0.50;;;;;;;;;;5074461;28;20056;-81
2022/04/05 02:08:41;;;;;;;0.82;0.40;;;;;;;;;;5092021;28;20024;-81
2022/04/05 02:11:07;;;;;;;1.13;0.68;;;;;;;;;;5095571;28;20059;-80
2022/04/05 02:13:33;;;;;;;0.73;0.60;;;;;;;;;;5095950;28;20043;-80
2022/04/05 02:16:01;;;;;;;0.82;0.60;;;;;;;;;;5044319;28;20044;-80
2022/04/05 02:18:27;;;;;;;0.60;0.60;;;;;;;;;;5077436;28;20033;-80
2022/04/05 02:20:54;;;;;;;0.65;0.55;;;;;;;;;;5095790;28;20077;-80
2022/04/05 02:23:20;;;;;;;0.52;0.52;;;;;;;;;;5078327;28;20026;-80
2022/04/05 02:25:45;;;;;;;1.25;0.60;;;;;;;;;;5077922;28;20465;-80
2022/04/05 02:28:10;;;;;;;1.88;0.82;;;;;;;;;;5060659;28;20032;-80
2022/04/05 02:30:38;;;;;;;4.75;0.70;;;;;;;;;;5095817;28;20035;-80
2022/04/05 02:33:03;;;;;;;1.85;0.82;;;;;;;;;;5077510;28;20459;-80
2022/04/05 02:35:29;;;;;;;1.77;0.50;;;;;;;;;;5095408;28;20031;-80
2022/04/05 02:37:54;;;;;;;0.50;0.50;;;;;;;;;;5077080;28;20032;-81
2022/04/05 02:40:19;;;;;;;5.82;1.05;;;;;;;;;;5095662;28;20062;-80
2022/04/05 02:42:45;;;;;;;1.25;0.70;;;;;;;;;;5095572;28;20028;-81
2022/04/05 02:45:11;;;;;;;0.40;0.40;;;;;;;;;;5095211;28;20471;-80
2022/04/05 02:47:36;;;;;;;1.30;0.80;;;;;;;;;;5077226;28;20120;-80
2022/04/05 02:50:02;;;;;;;0.73;0.50;;;;;;;;;;5077298;28;20469;-80
2022/04/05 02:52:29;;;;;;;1.58;0.63;;;;;;;;;;5077290;28;20099;-80
2022/04/05 02:54:54;;;;;;;0.55;0.55;;;;;;;;;;5095055;28;20402;-80
2022/04/05 02:57:20;;;;;;;0.47;0.47;;;;;;;;;;5060143;28;20119;-80
2022/04/05 02:59:45;;;;;;;0.32;0.32;;;;;;;;;;5076878;28;20036;-79
2022/04/05 03:02:10;;;;;;;2.28;0.52;;;;;;;;;;5060212;28;20036;-80
2022/04/05 03:04:36;;;;;;;0.80;0.60;;;;;;;;;;5076699;28;20039;-80
2022/04/05 03:07:03;;;;;;;1.10;0.60;;;;;;;;;;5077121;28;20027;-80
2022/04/05 03:09:28;;;;;;;1.10;0.60;;;;;;;;;;5076687;28;20476;-80
2022/04/05 03:11:55;;;;;;;0.98;0.50;;;;;;;;;;5095042;28;20032;-81
2022/04/05 03:14:21;;;;;;;0.98;0.50;;;;;;;;;;5095575;28;20323;-81
2022/04/05 03:16:47;;;;;;;0.50;0.50;;;;;;;;;;5073086;28;20041;-81
2022/04/05 03:19:12;;;;;;;0.40;0.40;;;;;;;;;;5074743;28;20030;-81
2022/04/05 03:21:38;;;;;;;0.57;0.40;;;;;;;;;;5073194;28;20036;-81
2022/04/05 03:24:04;;;;;;;0.50;0.50;;;;;;;;;;5073115;28;20471;-81
2022/04/05 03:26:29;;;;;;;1.85;0.52;;;;;;;;;;5074435;28;20537;-81
2022/04/05 03:28:54;;;;;;;0.35;0.35;;;;;;;;;;5073033;28;20116;-81
2022/04/05 03:31:20;;;;;;;0.32;0.32;;;;;;;;;;5072879;28;20446;-80
2022/04/05 03:33:46;;;;;;;1.17;0.50;;;;;;;;;;5072885;28;20071;-80
2022/04/05 03:36:12;;;;;;;0.40;0.30;;;;;;;;;;5055925;28;20028;-80
2022/04/05 03:38:38;;;;;;;1.33;0.70;;;;;;;;;;5072780;28;20028;-80
2022/04/05 03:41:03;;;;;;;0.63;0.50;;;;;;;;;;5072776;28;20105;-81
2022/04/05 03:43:28;;;;;;;0.95;0.50;;;;;;;;;;5074373;28;20434;-82
2022/04/05 03:45:54;;;;;;;0.63;0.50;;;;;;;;;;5055861;28;20542;-81
2022/04/05 03:48:19;;;;;;;0.65;0.60;;;;;;;;;;5074017;28;20036;-81
2022/04/05 03:50:45;;;;;;;1.48;0.60;;;;;;;;;;5074015;28;20118;-81
2022/04/05 03:53:10;;;;;;;0.80;0.52;;;;;;;;;;5073695;28;20178;-82
2022/04/05 03:55:36;;;;;;;4.70;0.63;;;;;;;;;;5074242;28;20081;-81
2022/04/05 03:58:01;;;;;;;1.38;0.80;;;;;;;;;;5074204;28;20107;-80
2022/04/05 04:00:27;;;;;;;0.45;0.45;;;;;;;;;;5074030;28;20040;-79
2022/04/05 04:02:52;;;;;;;0.90;0.80;;;;;;;;;;5073424;28;20029;-79
2022/04/05 04:05:20;;;;;;;0.95;0.50;;;;;;;;;;5072167;28;20103;-79
2022/04/05 04:07:49;;;;;;;0.40;0.40;;;;;;;;;;5073556;28;20502;-79
2022/04/05 04:10:15;;;;;;;4.30;0.95;;;;;;;;;;5074003;28;20036;-82
2022/04/05 04:12:40;;;;;;;3.65;1.00;;;;;;;;;;5073662;28;20095;-79
2022/04/05 04:15:07;;;;;;;17.95;1.58;;;;;;;;;;5073593;28;20040;-79
2022/04/05 04:17:32;;;;;;;1.95;0.93;;;;;;;;;;5071797;28;20044;-81
2022/04/05 04:19:57;;;;;;;2.47;1.10;;;;;;;;;;5073218;28;20047;-82
2022/04/05 04:22:23;;;;;;;1.95;1.10;;;;;;;;;;5055372;28;20395;-80
2022/04/05 04:24:49;;;;;;;4.15;1.30;;;;;;;;;;5073603;28;20043;-81
2022/04/05 04:27:14;;;;;;;1.75;1.13;;;;;;;;;;5071665;28;20436;-82
2022/04/05 04:29:40;;;;;;;5.10;1.48;;;;;;;;;;5072142;28;20037;-81
2022/04/05 04:32:05;;;;;;;5.07;1.08;;;;;;;;;;5054977;28;20487;-81
2022/04/05 04:34:31;;;;;;;1.33;1.10;;;;;;;;;;5073703;28;20039;-81
2022/04/05 04:36:56;;;;;;;2.35;1.10;;;;;;;;;;5073339;28;20032;-81
2022/04/05 04:39:22;;;;;;;2.00;1.10;;;;;;;;;;5072124;28;20494;-81
2022/04/05 04:41:47;;;;;;;1.80;1.30;;;;;;;;;;5073254;28;20487;-80
2022/04/05 04:44:13;;;;;;;2.33;1.10;;;;;;;;;;5073236;28;20035;-79
2022/04/05 04:46:39;;;;;;;7.85;2.10;;;;;;;;;;5073629;28;20028;-81
2022/04/05 04:49:04;;;;;;;4.22;1.75;;;;;;;;;;5073303;28;20028;-80
2022/04/05 04:51:29;;;;;;;11.35;1.67;;;;;;;;;;5073166;28;20029;-80
2022/04/05 04:53:55;;;;;;;8.05;2.28;;;;;;;;;;5073126;28;20039;-81
2022/04/05 04:56:20;;;;;;;7.50;2.05;;;;;;;;;;5072974;28;20028;-81
2022/04/05 04:58:45;;;;;;;10.10;2.10;;;;;;;;;;5072864;28;20090;-79
2022/04/05 05:01:11;;;;;;;10.25;2.30;;;;;;;;;;5073499;28;20089;-81
2022/04/05 05:03:37;;;;;;;9.00;2.20;;;;;;;;;;5074597;28;20051;-81
2022/04/05 05:06:04;;;;;;;6.28;1.90;;;;;;;;;;5074527;28;20058;-81
2022/04/05 05:08:30;;;;;;;6.43;1.92;;;;;;;;;;5055179;28;20027;-80
2022/04/05 05:10:56;;;;;;;6.30;1.63;;;;;;;;;;5072392;28;20060;-79
2022/04/05 05:13:21;;;;;;;10.32;1.83;;;;;;;;;;5073137;28;20082;-79
2022/04/05 05:15:47;;;;;;;7.07;2.00;;;;;;;;;;5057517;28;20028;-80
2022/04/05 05:18:12;;;;;;;9.73;1.95;;;;;;;;;;5076450;28;20060;-81
2022/04/05 05:20:38;;;;;;;12.82;2.50;;;;;;;;;;5077853;28;20062;-81
2022/04/05 05:23:03;;;;;;;7.10;2.03;;;;;;;;;;5080736;28;20418;-80
2022/04/05 05:25:29;;;;;;;3.40;1.42;;;;;;;;;;5044561;28;20610;-79
2022/04/05 05:27:55;;;;;;;5.85;1.92;;;;;;;;;;5074972;28;20039;-80
2022/04/05 05:30:22;;;;;;;8.63;1.88;;;;;;;;;;5075308;28;20111;-80
2022/04/05 05:32:49;;;;;;;7.20;1.60;;;;;;;;;;5075338;28;20029;-81
2022/04/05 05:35:18;;;;;;;2.65;1.65;;;;;;;;;;5075451;28;20025;-80
2022/04/05 05:37:44;;;;;;;4.80;1.85;;;;;;;;;;5074085;28;20025;-80
2022/04/05 05:40:11;;;;;;;5.10;1.50;;;;;;;;;;5076316;28;20033;-79
2022/04/05 05:42:52;;;;;;;3.13;1.60;;;;;;;;;;5072327;28;20033;-79
2022/04/05 05:45:19;;;;;;;3.35;1.20;;;;;;;;;;5076325;28;20028;-80
2022/04/05 05:47:45;;;;;;;4.88;1.65;;;;;;;;;;5077285;28;20074;-79
2022/04/05 05:50:12;;;;;;;4.53;2.17;;;;;;;;;;5077873;28;20020;-79
2022/04/05 05:52:38;;;;;;;2.30;1.42;;;;;;;;;;5062695;28;20035;-80
2022/04/05 05:55:04;;;;;;;6.38;1.60;;;;;;;;;;5078039;28;20024;-81
2022/04/05 05:57:30;;;;;;;2.45;1.67;;;;;;;;;;5058765;28;20399;-79
2022/04/05 05:59:55;;;;;;;4.38;1.60;;;;;;;;;;5076173;28;20043;-80
2022/04/05 06:02:20;;;;;;;9.18;1.73;;;;;;;;;;5058958;28;20028;-80
2022/04/05 06:04:46;;;;;;;8.30;1.63;;;;;;;;;;5077408;28;20472;-80
2022/04/05 06:07:12;;;;;;;3.08;1.50;;;;;;;;;;5075529;28;20032;-80
2022/04/05 06:09:37;;;;;;;7.68;1.50;;;;;;;;;;5077040;28;20108;-81
2022/04/05 06:12:05;;;;;;;5.45;1.67;;;;;;;;;;5058954;28;20052;-80
2022/04/05 06:14:30;;;;;;;2.05;1.20;;;;;;;;;;5075645;28;20461;-83
2022/04/05 06:16:56;;;;;;;5.22;1.60;;;;;;;;;;5086179;28;20052;-79
2022/04/05 06:19:21;;;;;;;3.15;1.30;;;;;;;;;;5100998;28;20028;-80
2022/04/05 06:21:46;;;;;;;2.92;1.45;;;;;;;;;;5079875;28;20068;-81
2022/04/05 06:24:12;;;;;;;5.05;1.30;;;;;;;;;;5079096;28;20031;-80
2022/04/05 06:26:37;;;;;;;2.80;1.38;;;;;;;;;;5081149;28;20024;-82
2022/04/05 06:29:02;;;;;;;5.43;1.50;;;;;;;;;;5102229;28;20121;-79
2022/04/05 06:31:28;;;;;;;3.38;1.40;;;;;;;;;;5102264;28;20039;-81
2022/04/05 06:33:53;;;;;;;2.92;1.25;;;;;;;;;;5083116;28;20394;-82
2022/04/05 06:36:18;;;;;;;6.15;1.70;;;;;;;;;;5098252;28;20048;-80
2022/04/05 06:38:44;;;;;;;4.05;1.40;;;;;;;;;;5096346;28;20365;-78
2022/04/05 06:41:09;;;;;;;5.13;1.33;;;;;;;;;;5077693;28;20115;-78
2022/04/05 06:43:35;;;;;;;9.38;1.52;;;;;;;;;;5095772;28;20032;-79
2022/04/05 06:46:01;;;;;;;9.25;1.40;;;;;;;;;;5078099;28;20020;-83
2022/04/05 06:48:26;;;;;;;5.07;1.20;;;;;;;;;;5078614;28;20039;-83
2022/04/05 06:50:53;;;;;;;10.10;1.77;;;;;;;;;;5096368;28;20032;-83
2022/04/05 06:53:18;;;;;;;5.53;1.35;;;;;;;;;;5096394;28;20482;-84
2022/04/05 06:55:44;;;;;;;5.07;1.58;;;;;;;;;;5095801;28;20085;-83
2022/04/05 06:58:09;;;;;;;5.63;1.83;;;;;;;;;;5061531;28;20085;-83
2022/04/05 07:00:36;;;;;;;5.03;1.55;;;;;;;;;;5077871;28;20056;-85
2022/04/05 07:03:01;;;;;;;4.43;1.30;;;;;;;;;;5077445;28;20028;-83
2022/04/05 07:05:28;;;;;;;6.00;1.20;;;;;;;;;;5077980;28;20027;-83
2022/04/05 07:07:54;;;;;;;4.47;1.35;;;;;;;;;;5060577;28;20024;-83
2022/04/05 07:10:20;;;;;;;5.20;1.55;;;;;;;;;;5061069;28;20040;-83
2022/04/05 07:12:46;;;;;;;2.92;1.13;;;;;;;;;;5095577;28;20108;-85
2022/04/05 07:15:12;;;;;;;9.15;1.95;;;;;;;;;;5077024;28;20040;-83
2022/04/05 07:17:38;;;;;;;7.90;1.63;;;;;;;;;;5095121;28;20052;-85
2022/04/05 07:20:08;;;;;;;4.60;1.23;;;;;;;;;;5095895;28;20489;-82
2022/04/05 07:22:34;;;;;;;10.90;1.50;;;;;;;;;;5095246;28;20044;-84
2022/04/05 07:24:59;;;;;;;3.42;1.40;;;;;;;;;;5077212;28;20095;-83
2022/04/05 07:27:24;;;;;;;3.70;1.60;;;;;;;;;;5095242;28;20027;-84
2022/04/05 07:29:50;;;;;;;2.40;1.17;;;;;;;;;;5076851;28;20084;-82
2022/04/05 07:32:16;;;;;;;3.55;1.10;;;;;;;;;;5094872;28;20032;-82
2022/04/05 07:34:41;;;;;;;4.07;1.52;;;;;;;;;;5077062;28;20036;-80
2022/04/05 07:37:09;;;;;;;5.53;1.60;;;;;;;;;;5095258;28;20121;-79
2022/04/05 07:39:36;;;;;;;4.15;1.27;;;;;;;;;;5060229;28;20453;-80
2022/04/05 07:42:01;;;;;;;5.90;1.20;;;;;;;;;;5094623;28;20386;-80
2022/04/05 07:44:27;;;;;;;2.10;1.23;;;;;;;;;;5076650;28;20098;-80
2022/04/05 07:46:52;;;;;;;4.68;1.70;;;;;;;;;;5076346;28;20440;-80
2022/04/05 07:49:18;;;;;;;4.93;1.55;;;;;;;;;;5060632;28;20032;-80
2022/04/05 07:51:43;;;;;;;2.90;1.48;;;;;;;;;;5076501;28;20028;-81
2022/04/05 07:54:09;;;;;;;4.90;1.50;;;;;;;;;;5076239;28;20028;-80
2022/04/05 07:56:34;;;;;;;3.95;1.80;;;;;;;;;;5094282;28;20035;-82
2022/04/05 07:59:01;;;;;;;4.15;1.70;;;;;;;;;;5094266;28;20432;-83
2022/04/05 08:01:29;;;;;;;7.60;2.45;;;;;;;;;;5076507;28;20035;-83
2022/04/05 08:03:55;;;;;;;4.10;1.58;;;;;;;;;;5060391;28;20020;-82
2022/04/05 08:06:20;;;;;;;3.30;1.35;;;;;;;;;;5094258;28;20386;-82
2022/04/05 08:08:45;;;;;;;3.38;1.38;;;;;;;;;;5075231;28;20028;-83
2022/04/05 08:11:11;;;;;;;3.15;1.60;;;;;;;;;;5094337;28;20028;-83
2022/04/05 08:13:36;;;;;;;2.83;1.10;;;;;;;;;;5094347;28;20032;-81
2022/04/05 08:16:02;;;;;;;2.63;1.25;;;;;;;;;;5094250;28;20038;-81
2022/04/05 08:18:27;;;;;;;4.03;1.20;;;;;;;;;;5094082;28;20044;-83
2022/04/05 08:20:53;;;;;;;1.67;1.20;;;;;;;;;;5059219;28;20474;-81
2022/04/05 08:23:19;;;;;;;4.53;1.15;;;;;;;;;;5093678;28;20034;-81
2022/04/05 08:25:44;;;;;;;1.67;0.95;;;;;;;;;;5093866;28;20028;-81
2022/04/05 08:28:09;;;;;;;5.75;1.30;;;;;;;;;;5075480;28;20441;-81
2022/04/05 08:30:35;;;;;;;7.35;1.20;;;;;;;;;;5075736;28;20036;-81
2022/04/05 08:33:00;;;;;;;3.65;1.08;;;;;;;;;;5058831;28;20032;-80
2022/04/05 08:35:26;;;;;;;3.05;1.00;;;;;;;;;;5093625;28;20514;-80
2022/04/05 08:37:53;;;;;;;1.83;1.15;;;;;;;;;;5093373;28;20044;-82
2022/04/05 08:40:21;;;;;;;2.78;1.20;;;;;;;;;;5075395;28;20031;-81
2022/04/05 08:42:52;;;;;;;3.20;1.45;;;;;;;;;;5059128;28;20031;-81
2022/04/05 08:45:19;;;;;;;2.20;1.10;;;;;;;;;;5058546;28;20020;-82
2022/04/05 08:47:47;;;;;;;4.20;1.45;;;;;;;;;;5075685;28;20024;-81
2022/04/05 08:50:15;;;;;;;3.05;1.85;;;;;;;;;;5075576;28;20027;-81
2022/04/05 08:52:42;;;;;;;2.67;1.15;;;;;;;;;;5058597;28;20028;-82
2022/04/05 08:55:07;;;;;;;2.45;1.10;;;;;;;;;;5093756;28;20026;-81
2022/04/05 08:57:33;;;;;;;4.05;1.52;;;;;;;;;;5093300;28;20398;-81
2022/04/05 09:00:00;;;;;;;2.08;1.20;;;;;;;;;;5093603;28;20442;-81
2022/04/05 09:02:26;;;;;;;7.05;1.38;;;;;;;;;;5078357;28;20028;-82
2022/04/05 09:04:52;;;;;;;2.65;1.10;;;;;;;;;;5085382;28;20054;-82
2022/04/05 09:07:28;;;;;;;6.72;1.20;;;;;;;;;;5071838;28;20034;-81
2022/04/05 09:10:16;;;;;;;3.17;1.10;;;;;;;;;;5068925;28;20028;-81
2022/04/05 09:12:50;;;;;;;4.38;1.17;;;;;;;;;;5068636;28;20468;-82
2022/04/05 09:15:18;;;;;;;3.92;1.33;;;;;;;;;;5083251;28;20024;-81
2022/04/05 09:17:45;;;;;;;3.08;1.20;;;;;;;;;;5098257;28;20181;-81
2022/04/05 09:20:12;;;;;;;0.98;0.85;;;;;;;;;;5079658;28;20024;-80
2022/04/05 09:22:38;;;;;;;2.67;1.40;;;;;;;;;;5081275;28;20028;-81
2022/04/05 09:25:09;;;;;;;2.78;1.27;;;;;;;;;;5099016;28;20032;-82
2022/04/05 09:27:55;;;;;;;2.30;1.20;;;;;;;;;;5079816;28;20032;-81
2022/04/05 09:30:27;;;;;;;2.83;0.90;;;;;;;;;;5081105;28;20024;-81
2022/04/05 09:32:56;;;;;;;2.03;1.00;;;;;;;;;;5080812;28;20456;-81
2022/04/05 09:35:28;;;;;;;1.80;1.00;;;;;;;;;;5084316;28;20085;-79
2022/04/05 09:38:12;;;;;;;3.17;1.20;;;;;;;;;;5083682;28;20508;-80
2022/04/05 09:40:38;;;;;;;2.58;1.45;;;;;;;;;;5083064;28;20102;-81
2022/04/05 09:43:14;;;;;;;2.47;1.10;;;;;;;;;;5081065;28;20047;-80
2022/04/05 09:45:58;;;;;;;1.45;1.00;;;;;;;;;;5082052;28;20095;-80
2022/04/05 09:48:26;;;;;;;2.08;1.10;;;;;;;;;;5079683;28;20470;-80
2022/04/05 09:51:14;;;;;;;2.40;1.00;;;;;;;;;;5063497;28;20442;-80
2022/04/05 09:53:41;;;;;;;1.88;0.90;;;;;;;;;;5076582;28;20034;-81
2022/04/05 09:56:10;;;;;;;2.65;1.20;;;;;;;;;;5074534;28;20074;-81
2022/04/05 09:58:36;;;;;;;1.83;1.20;;;;;;;;;;5092538;28;20040;-80
2022/04/05 10:01:08;;;;;;;1.40;1.10;;;;;;;;;;5074935;28;20032;-80
2022/04/05 10:03:39;;;;;;;1.70;1.05;;;;;;;;;;5092666;28;20048;-80
2022/04/05 10:06:04;;;;;;;3.90;0.80;;;;;;;;;;5074509;28;20095;-80
2022/04/05 10:08:34;;;;;;;2.45;1.05;;;;;;;;;;5096334;28;20060;-80
2022/04/05 10:11:01;;;;;;;2.28;1.02;;;;;;;;;;5092990;28;20421;-79
2022/04/05 10:13:30;;;;;;;2.22;1.20;;;;;;;;;;5074196;28;20028;-79
2022/04/05 10:15:56;;;;;;;1.10;1.00;;;;;;;;;;5074158;28;20093;-79
2022/04/05 10:18:21;;;;;;;2.30;0.98;;;;;;;;;;5074003;28;20056;-79
2022/04/05 10:20:49;;;;;;;2.17;1.00;;;;;;;;;;5073989;28;20036;-79
2022/04/05 10:23:19;;;;;;;2.22;1.20;;;;;;;;;;5074237;28;20036;-79
2022/04/05 10:25:47;;;;;;;1.55;0.90;;;;;;;;;;5074308;28;20055;-79
2022/04/05 10:28:15;;;;;;;2.13;1.35;;;;;;;;;;5074171;28;20024;-80
2022/04/05 10:30:43;;;;;;;2.70;1.30;;;;;;;;;;5077897;28;20051;-78
2022/04/05 10:33:14;;;;;;;1.63;0.90;;;;;;;;;;5079832;28;20085;-78
2022/04/05 10:35:52;;;;;;;1.40;0.90;;;;;;;;;;5061877;28;20027;-79
2022/04/05 10:38:18;;;;;;;2.28;1.15;;;;;;;;;;5096321;28;20035;-80
2022/04/05 10:41:21;;;;;;;3.35;1.30;;;;;;;;;;5061632;28;20371;-80
2022/04/05 10:44:08;;;;;;;2.50;1.25;;;;;;;;;;5096358;28;20039;-80
2022/04/05 10:46:44;;;;;;;12.70;1.30;;;;;;;;;;5096303;28;20024;-79
2022/04/05 10:49:09;;;;;;;1.60;1.00;;;;;;;;;;5078190;28;20424;-80
2022/04/05 10:52:07;;;;;;;1.42;1.10;;;;;;;;;;5096029;28;20035;-80
2022/04/05 10:54:43;;;;;;;9.45;1.10;;;;;;;;;;5077676;28;20123;-81
2022/04/05 10:57:33;;;;;;;2.75;1.00;;;;;;;;;;5077162;28;20016;-80
2022/04/05 11:00:06;;;;;;;2.95;1.20;;;;;;;;;;5077107;28;20028;-79
2022/04/05 11:02:41;;;;;;;1.27;0.93;;;;;;;;;;5097252;28;20020;-80
2022/04/05 11:05:18;;;;;;;2.47;1.40;;;;;;;;;;5081020;28;20028;-79
2022/04/05 11:08:04;;;;;;;1.40;0.90;;;;;;;;;;5098708;28;20020;-80
2022/04/05 11:10:45;;;;;;;2.13;1.10;;;;;;;;;;5080787;28;20458;-79
2022/04/05 11:13:18;;;;;;;5.25;1.00;;;;;;;;;;5098155;28;20027;-79
2022/04/05 11:15:52;;;;;;;1.60;0.80;;;;;;;;;;5081215;28;20020;-79
2022/04/05 11:18:18;;;;;;;;;;;;;;;;;;5077823;28;20163;-79
2022/04/05 11:20:45;;;;;;;3.08;1.17;;;;;;;;;;5077946;28;19931;-78
2022/04/05 11:23:14;;;;;;;1.08;0.90;;;;;;;;;;5059148;28;20028;-79
2022/04/05 11:25:39;;;;;;;1.58;1.00;;;;;;;;;;5076386;28;20097;-79
2022/04/05 11:28:17;;;;;;;2.80;1.10;;;;;;;;;;5077900;28;20025;-79
2022/04/05 11:30:55;;;;;;;2.90;1.20;;;;;;;;;;5076166;28;20025;-78
2022/04/05 11:33:36;;;;;;;4.05;1.08;;;;;;;;;;5058360;28;20035;-78
2022/04/05 11:36:07;;;;;;;3.00;1.10;;;;;;;;;;5072895;28;20032;-80
2022/04/05 11:38:47;;;;;;;2.42;0.90;;;;;;;;;;5074365;28;20028;-80
2022/04/05 11:41:26;;;;;;;11.43;1.20;;;;;;;;;;5075116;28;20545;-80
2022/04/05 11:43:56;;;;;;;1.77;1.00;;;;;;;;;;5074242;28;20032;-80
2022/04/05 11:46:29;;;;;;;1.35;1.05;;;;;;;;;;5073215;28;20058;-79
2022/04/05 11:48:59;;;;;;;10.95;1.70;;;;;;;;;;5074598;28;20028;-79
2022/04/05 11:51:30;;;;;;;1.90;1.20;;;;;;;;;;5074130;28;20027;-78
2022/04/05 11:54:10;;;;;;;5.07;1.10;;;;;;;;;;5074789;28;20031;-79
2022/04/05 11:56:40;;;;;;;3.15;1.17;;;;;;;;;;5074426;28;20471;-80
2022/04/05 11:59:07;;;;;;;3.50;1.20;;;;;;;;;;5058082;28;20028;-79
2022/04/05 12:01:36;;;;;;;2.60;1.00;;;;;;;;;;5056669;28;20020;-80
2022/04/05 12:04:09;;;;;;;6.53;1.45;;;;;;;;;;5073963;28;20036;-79
2022/04/05 12:06:37;;;;;;;1.70;1.07;;;;;;;;;;5072781;28;20020;-78
2022/04/05 12:09:13;;;;;;;4.10;1.27;;;;;;;;;;5072594;28;20032;-78
2022/04/05 12:11:40;;;;;;;4.68;1.20;;;;;;;;;;5072460;28;20035;-81
2022/04/05 12:14:09;;;;;;;7.45;1.27;;;;;;;;;;5072720;28;20082;-80
2022/04/05 12:17:02;;;;;;;3.75;1.20;;;;;;;;;;5076893;28;20077;-79
2022/04/05 12:19:38;;;;;;;4.88;1.60;;;;;;;;;;5090351;28;20040;-80
2022/04/05 12:22:05;;;;;;;4.85;1.20;;;;;;;;;;5093919;28;20047;-79
2022/04/05 12:24:32;;;;;;;3.92;1.30;;;;;;;;;;5093885;28;20043;-79
2022/04/05 12:26:58;;;;;;;3.38;1.40;;;;;;;;;;5075452;28;20134;-81
2022/04/05 12:29:24;;;;;;;3.70;1.30;;;;;;;;;;5093739;28;20052;-79
2022/04/05 12:31:49;;;;;;;2.85;1.45;;;;;;;;;;5094055;28;20046;-79
2022/04/05 12:34:15;;;;;;;4.10;1.40;;;;;;;;;;5093685;28;20142;-78
2022/04/05 12:36:46;;;;;;;2.47;1.05;;;;;;;;;;5058601;28;20028;-78
2022/04/05 12:39:25;;;;;;;3.97;1.50;;;;;;;;;;5076038;28;20036;-79
2022/04/05 12:42:11;;;;;;;5.38;1.00;;;;;;;;;;5093677;28;20032;-79
2022/04/05 12:44:38;;;;;;;3.55;1.35;;;;;;;;;;5059973;28;20040;-79
2022/04/05 12:47:14;;;;;;;1.90;0.93;;;;;;;;;;5101194;28;20027;-80
2022/04/05 12:49:45;;;;;;;2.17;1.10;;;;;;;;;;5082444;28;20485;-80
2022/04/05 12:52:14;;;;;;;3.05;1.10;;;;;;;;;;5102189;28;20129;-79
2022/04/05 12:54:48;;;;;;;1.38;1.10;;;;;;;;;;5100615;28;20035;-79
2022/04/05 12:57:19;;;;;;;3.05;1.38;;;;;;;;;;5095291;28;20022;-79
2022/04/05 12:59:46;;;;;;;1.63;1.20;;;;;;;;;;5093384;28;20019;-79
2022/04/05 13:02:22;;;;;;;8.20;1.30;;;;;;;;;;5094593;28;20028;-80
2022/04/05 13:04:48;;;;;;;2.33;1.10;;;;;;;;;;5095603;28;20024;-80
2022/04/05 13:07:14;;;;;;;3.50;1.30;;;;;;;;;;5075439;28;20030;-81
2022/04/05 13:09:40;;;;;;;2.03;1.30;;;;;;;;;;5076036;28;20025;-80
2022/04/05 13:12:06;;;;;;;1.92;1.02;;;;;;;;;;5075107;28;20056;-81
2022/04/05 13:14:32;;;;;;;3.97;1.25;;;;;;;;;;5093246;28;20020;-80
2022/04/05 13:17:00;;;;;;;5.53;1.77;;;;;;;;;;5057969;28;20374;-80
2022/04/05 13:19:26;;;;;;;3.13;1.50;;;;;;;;;;5094489;28;20498;-80
2022/04/05 13:21:53;;;;;;;6.38;1.30;;;;;;;;;;5092951;28;20036;-80
2022/04/05 13:24:20;;;;;;;3.60;1.38;;;;;;;;;;5093183;28;20509;-80
2022/04/05 13:26:51;;;;;;;4.53;1.20;;;;;;;;;;5075462;28;20032;-82
2022/04/05 13:29:18;;;;;;;6.25;1.40;;;;;;;;;;5093786;28;20400;-81
2022/04/05 13:31:52;;;;;;;2.60;1.40;;;;;;;;;;5074922;28;20057;-81
2022/04/05 13:34:20;;;;;;;2.05;1.50;;;;;;;;;;5074953;28;20020;-80
2022/04/05 13:36:46;;;;;;;2.75;1.20;;;;;;;;;;5094344;28;20024;-83
2022/04/05 13:39:12;;;;;;;3.22;1.80;;;;;;;;;;5075973;28;20055;-82
2022/04/05 13:41:38;;;;;;;2.75;1.40;;;;;;;;;;5075063;28;20028;-80
2022/04/05 13:44:05;;;;;;;4.78;1.30;;;;;;;;;;5058680;28;20060;-80
2022/04/05 13:46:34;;;;;;;2.53;1.30;;;;;;;;;;5074574;28;20455;-81
2022/04/05 13:49:02;;;;;;;1.58;1.10;;;;;;;;;;5075313;28;20123;-82
2022/04/05 13:51:28;;;;;;;2.50;1.20;;;;;;;;;;5057848;28;20020;-82
2022/04/05 13:53:53;;;;;;;1.63;1.10;;;;;;;;;;5092689;28;20028;-82
2022/04/05 13:56:19;;;;;;;3.75;1.00;;;;;;;;;;5074535;28;20024;-82
2022/04/05 13:58:44;;;;;;;2.15;1.20;;;;;;;;;;5092915;28;20153;-82
2022/04/05 14:01:10;;;;;;;4.53;1.27;;;;;;;;;;5074908;28;20035;-82
2022/04/05 14:03:36;;;;;;;1.33;1.10;;;;;;;;;;5092673;28;20035;-82
2022/04/05 14:06:01;;;;;;;2.42;1.52;;;;;;;;;;5077117;28;20028;-79
2022/04/05 14:08:27;;;;;;;2.10;1.15;;;;;;;;;;5096646;28;20181;-79
2022/04/05 14:10:52;;;;;;;4.53;1.48;;;;;;;;;;5096875;28;20389;-80
2022/04/05 14:13:18;;;;;;;1.60;1.38;;;;;;;;;;5078402;28;20056;-79
2022/04/05 14:15:44;;;;;;;2.13;1.30;;;;;;;;;;5096528;28;20068;-79
2022/04/05 14:18:09;;;;;;;1.15;1.05;;;;;;;;;;5078307;28;20219;-80
2022/04/05 14:20:35;;;;;;;2.25;1.30;;;;;;;;;;5096619;28;20105;-80
2022/04/05 14:23:00;;;;;;;1.25;1.15;;;;;;;;;;5096832;28;20028;-80
2022/04/05 14:25:26;;;;;;;2.17;1.40;;;;;;;;;;5079398;28;20062;-79
2022/04/05 14:27:51;;;;;;;1.38;1.00;;;;;;;;;;5097362;28;20463;-80
2022/04/05 14:30:17;;;;;;;2.42;1.42;;;;;;;;;;5097733;28;20093;-80
2022/04/05 14:32:42;;;;;;;2.03;1.40;;;;;;;;;;5097134;28;20028;-80
2022/04/05 14:35:08;;;;;;;1.73;1.20;;;;;;;;;;5079379;28;20097;-80
2022/04/05 14:37:33;;;;;;;1.52;1.05;;;;;;;;;;5081257;28;20028;-79
2022/04/05 14:39:59;;;;;;;3.35;1.20;;;;;;;;;;5081118;28;20378;-79
2022/04/05 14:42:24;;;;;;;2.70;1.10;;;;;;;;;;5063806;28;20471;-79
2022/04/05 14:44:50;;;;;;;1.55;1.20;;;;;;;;;;5079547;28;20046;-79
2022/04/05 14:47:15;;;;;;;1.45;1.08;;;;;;;;;;5097712;28;20447;-79